Time;durP1;ratioP1;P1;durP2;ratioP2;P2;SDS_P1;SDS_P2;PMS_P1;PMS_P2;Temp;Humidity;BMP_temperature;BMP_pressure;BME280_temperature;BME280_humidity;BME280_pressure;Samples;Min_cycle;Max_cycle;Signal;HPM_P1;HPM_P2
2024/03/22 00:00:17;;;;;;;11.40;9.10;;;;;;;;;;4972672;28;20452;-80
2024/03/22 00:02:43;;;;;;;14.03;8.40;;;;;;;;;;4973929;28;20468;-78
2024/03/22 00:05:09;;;;;;;13.80;8.30;;;;;;;;;;4984189;28;20482;-76
2024/03/22 00:07:36;;;;;;;16.70;8.83;;;;;;;;;;4993120;28;20411;-77
2024/03/22 00:10:02;;;;;;;14.53;8.30;;;;;;;;;;4991355;28;20181;-77
2024/03/22 00:12:28;;;;;;;14.20;9.13;;;;;;;;;;4993198;28;20431;-80
2024/03/22 00:14:54;;;;;;;12.20;7.83;;;;;;;;;;4997114;28;20461;-81
2024/03/22 00:17:20;;;;;;;15.27;8.33;;;;;;;;;;4997334;28;20419;-84
2024/03/22 00:19:46;;;;;;;12.47;7.73;;;;;;;;;;4997162;28;20744;-78
2024/03/22 00:22:12;;;;;;;15.20;10.20;;;;;;;;;;4997047;28;20416;-78
2024/03/22 00:24:38;;;;;;;14.17;9.50;;;;;;;;;;4995731;28;20454;-80
2024/03/22 00:27:04;;;;;;;12.10;8.33;;;;;;;;;;4997019;28;20423;-82
2024/03/22 00:29:30;;;;;;;18.90;9.90;;;;;;;;;;4996521;28;20519;-86
2024/03/22 00:31:56;;;;;;;14.30;8.83;;;;;;;;;;4996769;28;20828;-78
2024/03/22 00:34:21;;;;;;;14.83;8.70;;;;;;;;;;4996664;28;20415;-86
2024/03/22 00:36:47;;;;;;;18.40;9.37;;;;;;;;;;4996822;28;20476;-83
2024/03/22 00:39:13;;;;;;;15.10;9.77;;;;;;;;;;4996659;28;20865;-80
2024/03/22 00:41:39;;;;;;;15.30;9.67;;;;;;;;;;4996654;28;20973;-80
2024/03/22 00:44:05;;;;;;;13.40;8.87;;;;;;;;;;4996281;28;20420;-79
2024/03/22 00:46:31;;;;;;;18.03;9.50;;;;;;;;;;4996626;28;20419;-84
2024/03/22 00:48:58;;;;;;;12.10;9.10;;;;;;;;;;4996539;28;20496;-82
2024/03/22 00:51:26;;;;;;;25.73;8.80;;;;;;;;;;4996420;28;20418;-82
2024/03/22 00:53:52;;;;;;;15.90;10.40;;;;;;;;;;4995117;28;20431;-79
2024/03/22 00:56:18;;;;;;;14.80;9.60;;;;;;;;;;4996413;28;20475;-81
2024/03/22 00:58:44;;;;;;;15.07;8.83;;;;;;;;;;4996102;28;20448;-86
2024/03/22 01:01:09;;;;;;;13.67;9.77;;;;;;;;;;4996531;28;20414;-81
2024/03/22 01:03:35;;;;;;;13.63;9.60;;;;;;;;;;4987423;28;20216;-86
2024/03/22 01:06:01;;;;;;;14.43;9.20;;;;;;;;;;4976763;28;20412;-82
2024/03/22 01:08:27;;;;;;;15.33;10.87;;;;;;;;;;4976652;28;20417;-77
2024/03/22 01:10:54;;;;;;;17.77;10.40;;;;;;;;;;4976655;28;20423;-82
2024/03/22 01:13:20;;;;;;;15.67;9.93;;;;;;;;;;4976252;28;20428;-83
2024/03/22 01:15:47;;;;;;;14.10;10.07;;;;;;;;;;4976441;28;20482;-79
2024/03/22 01:18:13;;;;;;;14.13;9.40;;;;;;;;;;4976588;28;20795;-77
2024/03/22 01:20:39;;;;;;;14.53;10.43;;;;;;;;;;4976398;28;20420;-76
2024/03/22 01:23:05;;;;;;;14.67;9.90;;;;;;;;;;4974740;28;20452;-76
2024/03/22 01:25:31;;;;;;;16.67;11.80;;;;;;;;;;4976617;28;20815;-78
2024/03/22 01:27:57;;;;;;;14.57;11.07;;;;;;;;;;4976219;28;20447;-77
2024/03/22 01:30:23;;;;;;;22.37;11.50;;;;;;;;;;4975178;28;20432;-78
2024/03/22 01:32:49;;;;;;;13.67;10.60;;;;;;;;;;4976453;28;20415;-77
2024/03/22 01:35:15;;;;;;;19.27;11.93;;;;;;;;;;4976103;28;20460;-77
2024/03/22 01:37:41;;;;;;;18.07;11.53;;;;;;;;;;4976113;28;20475;-78
2024/03/22 01:40:08;;;;;;;16.10;10.37;;;;;;;;;;4976099;28;20479;-76
2024/03/22 01:42:34;;;;;;;20.37;12.07;;;;;;;;;;4975759;28;20428;-76
2024/03/22 01:45:00;;;;;;;16.83;11.50;;;;;;;;;;4976101;28;20935;-81
2024/03/22 01:47:26;;;;;;;17.07;11.37;;;;;;;;;;4976012;28;20917;-78
2024/03/22 01:49:54;;;;;;;19.73;13.23;;;;;;;;;;4975924;28;20421;-82
2024/03/22 01:52:20;;;;;;;15.03;11.33;;;;;;;;;;4975931;28;20415;-77
2024/03/22 01:54:46;;;;;;;19.03;12.53;;;;;;;;;;4975783;28;20560;-83
2024/03/22 01:57:12;;;;;;;16.70;13.77;;;;;;;;;;4975478;28;21369;-82
2024/03/22 01:59:39;;;;;;;21.20;13.90;;;;;;;;;;4975760;28;20427;-82
2024/03/22 02:02:05;;;;;;;20.53;14.30;;;;;;;;;;4975687;28;20875;-76
2024/03/22 02:04:31;;;;;;;22.07;14.73;;;;;;;;;;4975398;28;20464;-85
2024/03/22 02:06:57;;;;;;;23.23;15.30;;;;;;;;;;4975540;28;20411;-80
2024/03/22 02:09:23;;;;;;;19.80;14.30;;;;;;;;;;4975651;28;21267;-79
2024/03/22 02:11:49;;;;;;;20.87;14.63;;;;;;;;;;4975392;28;20427;-77
2024/03/22 02:14:15;;;;;;;18.93;14.43;;;;;;;;;;4975493;28;20423;-81
2024/03/22 02:16:41;;;;;;;26.60;16.23;;;;;;;;;;4974079;28;21070;-79
2024/03/22 02:19:08;;;;;;;22.30;16.37;;;;;;;;;;4975323;28;20420;-77
2024/03/22 02:21:34;;;;;;;22.60;15.50;;;;;;;;;;4973973;28;20432;-79
2024/03/22 02:23:59;;;;;;;18.97;15.20;;;;;;;;;;4974027;28;20428;-82
2024/03/22 02:26:25;;;;;;;23.30;17.00;;;;;;;;;;4975260;28;20430;-81
2024/03/22 02:28:51;;;;;;;23.13;15.80;;;;;;;;;;4974889;28;20815;-79
2024/03/22 02:31:18;;;;;;;25.30;17.00;;;;;;;;;;4975164;28;20434;-78
2024/03/22 02:33:44;;;;;;;18.90;14.03;;;;;;;;;;4975096;28;20868;-80
2024/03/22 02:36:10;;;;;;;23.37;16.83;;;;;;;;;;4974245;28;21103;-81
2024/03/22 02:38:36;;;;;;;20.23;15.23;;;;;;;;;;4975164;28;20440;-81
2024/03/22 02:41:01;;;;;;;24.13;16.13;;;;;;;;;;4974995;28;20423;-81
2024/03/22 02:43:27;;;;;;;31.57;17.83;;;;;;;;;;4974695;28;20471;-82
2024/03/22 02:45:53;;;;;;;24.33;16.10;;;;;;;;;;4974945;28;20181;-83
2024/03/22 02:48:19;;;;;;;22.77;15.80;;;;;;;;;;4974782;28;20492;-78
2024/03/22 02:50:45;;;;;;;23.73;17.57;;;;;;;;;;4974880;28;20430;-80
2024/03/22 02:53:11;;;;;;;20.93;16.70;;;;;;;;;;4974973;28;20177;-77
2024/03/22 02:55:40;;;;;;;25.70;16.87;;;;;;;;;;4974661;28;20522;-77
2024/03/22 02:58:06;;;;;;;25.90;18.80;;;;;;;;;;4974311;28;20426;-77
2024/03/22 03:00:35;;;;;;;26.77;17.13;;;;;;;;;;4974517;28;20921;-77
2024/03/22 03:03:01;;;;;;;24.80;17.07;;;;;;;;;;4974609;28;20841;-80
2024/03/22 03:05:27;;;;;;;27.23;17.97;;;;;;;;;;4974425;28;20476;-83
2024/03/22 03:07:53;;;;;;;27.37;17.93;;;;;;;;;;4974519;28;21009;-79
2024/03/22 03:10:19;;;;;;;25.60;16.87;;;;;;;;;;4974532;28;20565;-81
2024/03/22 03:12:45;;;;;;;27.53;18.37;;;;;;;;;;4974116;28;20416;-82
2024/03/22 03:15:11;;;;;;;25.97;18.13;;;;;;;;;;4974395;28;20472;-79
2024/03/22 03:17:37;;;;;;;27.97;19.00;;;;;;;;;;4974335;28;20904;-83
2024/03/22 03:20:07;;;;;;;25.87;17.53;;;;;;;;;;4974340;28;20419;-83
2024/03/22 03:22:33;;;;;;;29.13;19.83;;;;;;;;;;4974309;28;20422;-83
2024/03/22 03:24:59;;;;;;;30.50;19.83;;;;;;;;;;4974259;28;20786;-84
2024/03/22 03:27:25;;;;;;;30.30;21.00;;;;;;;;;;4973983;28;20499;-80
2024/03/22 03:29:51;;;;;;;27.23;18.60;;;;;;;;;;4974208;28;20496;-80
2024/03/22 03:32:17;;;;;;;26.83;20.20;;;;;;;;;;4974026;28;20444;-79
2024/03/22 03:34:43;;;;;;;28.17;19.80;;;;;;;;;;4983396;28;20216;-81
2024/03/22 03:37:08;;;;;;;29.90;21.27;;;;;;;;;;4982769;28;20920;-78
2024/03/22 03:39:34;;;;;;;29.93;20.80;;;;;;;;;;4985103;28;20414;-78
2024/03/22 03:42:00;;;;;;;27.33;20.00;;;;;;;;;;4992486;28;20423;-82
2024/03/22 03:44:26;;;;;;;29.13;19.13;;;;;;;;;;4991585;28;20858;-82
2024/03/22 03:46:52;;;;;;;32.77;21.00;;;;;;;;;;4992629;28;20180;-77
2024/03/22 03:49:18;;;;;;;30.87;21.47;;;;;;;;;;4992781;28;20472;-76
2024/03/22 03:51:44;;;;;;;30.10;21.67;;;;;;;;;;4991874;28;20469;-76
2024/03/22 03:54:10;;;;;;;25.33;20.03;;;;;;;;;;4993160;28;20178;-77
2024/03/22 03:56:36;;;;;;;33.43;22.73;;;;;;;;;;4992950;28;20686;-76
2024/03/22 03:59:02;;;;;;;35.33;22.90;;;;;;;;;;4993349;28;20183;-76
2024/03/22 04:01:28;;;;;;;32.30;22.87;;;;;;;;;;4993420;28;20174;-76
2024/03/22 04:03:54;;;;;;;31.57;23.37;;;;;;;;;;4993135;28;20510;-76
2024/03/22 04:06:19;;;;;;;32.57;23.00;;;;;;;;;;4992424;28;20421;-77
2024/03/22 04:08:45;;;;;;;30.17;21.83;;;;;;;;;;4993499;28;20418;-78
2024/03/22 04:11:11;;;;;;;30.00;21.47;;;;;;;;;;4993448;28;20452;-80
2024/03/22 04:13:37;;;;;;;32.27;22.30;;;;;;;;;;4993232;28;20854;-76
2024/03/22 04:16:04;;;;;;;33.00;21.97;;;;;;;;;;4993370;28;20480;-81
2024/03/22 04:18:30;;;;;;;31.90;21.40;;;;;;;;;;4993478;28;20459;-76
2024/03/22 04:20:57;;;;;;;33.50;24.87;;;;;;;;;;4993390;28;20414;-78
2024/03/22 04:23:23;;;;;;;30.10;21.43;;;;;;;;;;4993358;28;20184;-76
2024/03/22 04:25:56;;;;;;;31.17;22.70;;;;;;;;;;4993330;28;20435;-79
2024/03/22 04:28:22;;;;;;;31.13;21.47;;;;;;;;;;4993013;28;20419;-76
2024/03/22 04:31:01;;;;;;;32.60;22.70;;;;;;;;;;4993255;28;20458;-77
2024/03/22 04:33:27;;;;;;;31.57;22.13;;;;;;;;;;4993388;28;20485;-78
2024/03/22 04:35:54;;;;;;;33.43;23.10;;;;;;;;;;4993200;28;20472;-77
2024/03/22 04:38:20;;;;;;;31.53;22.07;;;;;;;;;;4993318;28;20416;-76
2024/03/22 04:40:46;;;;;;;32.20;24.80;;;;;;;;;;4993287;28;20774;-75
2024/03/22 04:43:12;;;;;;;30.40;23.07;;;;;;;;;;4992824;28;20450;-76
2024/03/22 04:45:38;;;;;;;33.63;23.77;;;;;;;;;;4993194;28;20409;-77
2024/03/22 04:48:04;;;;;;;36.27;24.77;;;;;;;;;;4993283;28;20424;-76
2024/03/22 04:50:30;;;;;;;37.60;26.50;;;;;;;;;;4993114;28;20999;-76
2024/03/22 04:52:56;;;;;;;33.83;23.63;;;;;;;;;;4993144;28;20423;-80
2024/03/22 04:55:22;;;;;;;37.83;26.50;;;;;;;;;;4993054;28;20463;-84
2024/03/22 04:57:48;;;;;;;35.50;25.00;;;;;;;;;;4992895;28;20417;-77
2024/03/22 05:00:14;;;;;;;34.97;24.47;;;;;;;;;;4995349;28;20421;-76
2024/03/22 05:02:40;;;;;;;37.83;24.47;;;;;;;;;;4996529;28;20543;-76
2024/03/22 05:05:09;;;;;;;35.73;24.13;;;;;;;;;;4996404;28;20463;-76
2024/03/22 05:07:36;;;;;;;39.63;24.97;;;;;;;;;;4996468;28;20448;-76
2024/03/22 05:10:03;;;;;;;41.20;28.33;;;;;;;;;;4996433;28;20415;-76
2024/03/22 05:12:29;;;;;;;37.57;27.00;;;;;;;;;;4995992;28;20415;-76
2024/03/22 05:14:55;;;;;;;37.77;26.20;;;;;;;;;;4996077;28;20881;-84
2024/03/22 05:17:21;;;;;;;40.40;28.40;;;;;;;;;;4996299;28;20433;-76
2024/03/22 05:19:47;;;;;;;35.47;25.53;;;;;;;;;;4996286;28;20404;-76
2024/03/22 05:22:13;;;;;;;35.90;24.63;;;;;;;;;;4996237;28;20488;-76
2024/03/22 05:24:39;;;;;;;34.77;24.83;;;;;;;;;;4996163;28;20921;-76
2024/03/22 05:27:05;;;;;;;37.33;25.73;;;;;;;;;;4995630;28;20404;-76
2024/03/22 05:29:31;;;;;;;34.60;25.60;;;;;;;;;;4996046;28;20446;-78
2024/03/22 05:31:57;;;;;;;39.70;27.60;;;;;;;;;;4995940;28;20947;-76
2024/03/22 05:34:23;;;;;;;38.20;27.20;;;;;;;;;;4995751;28;20430;-76
2024/03/22 05:36:49;;;;;;;39.50;25.37;;;;;;;;;;4995785;28;20987;-77
2024/03/22 05:39:15;;;;;;;39.47;27.73;;;;;;;;;;4995749;28;20826;-77
2024/03/22 05:41:41;;;;;;;38.23;25.83;;;;;;;;;;4995419;28;20459;-83
2024/03/22 05:44:07;;;;;;;40.03;26.20;;;;;;;;;;4995338;28;20806;-80
2024/03/22 05:46:33;;;;;;;42.30;27.40;;;;;;;;;;4995761;28;20574;-76
2024/03/22 05:48:59;;;;;;;42.37;28.53;;;;;;;;;;4995675;28;20407;-76
2024/03/22 05:51:26;;;;;;;44.37;30.00;;;;;;;;;;4995673;28;20511;-76
2024/03/22 05:53:52;;;;;;;41.00;29.67;;;;;;;;;;4994383;28;20428;-76
2024/03/22 05:56:18;;;;;;;38.93;28.13;;;;;;;;;;4995063;28;20839;-76
2024/03/22 05:58:44;;;;;;;48.47;30.23;;;;;;;;;;4995419;28;20461;-76
2024/03/22 06:01:10;;;;;;;40.43;27.43;;;;;;;;;;4995436;28;20419;-77
2024/03/22 06:03:36;;;;;;;37.03;26.87;;;;;;;;;;4993986;28;20623;-76
2024/03/22 06:06:03;;;;;;;39.37;27.20;;;;;;;;;;4994183;28;20481;-76
2024/03/22 06:08:31;;;;;;;46.03;31.07;;;;;;;;;;4995310;28;20223;-76
2024/03/22 06:10:57;;;;;;;47.83;30.90;;;;;;;;;;4994169;28;21153;-77
2024/03/22 06:13:23;;;;;;;43.47;29.00;;;;;;;;;;4994896;28;20426;-76
2024/03/22 06:15:49;;;;;;;42.63;28.07;;;;;;;;;;4995120;28;20216;-77
2024/03/22 06:18:15;;;;;;;46.13;30.60;;;;;;;;;;4995148;28;20419;-76
2024/03/22 06:20:41;;;;;;;46.70;30.27;;;;;;;;;;4995180;28;20439;-76
2024/03/22 06:23:10;;;;;;;47.97;30.87;;;;;;;;;;4995004;28;20503;-76
2024/03/22 06:25:37;;;;;;;49.10;32.30;;;;;;;;;;4995065;28;20420;-76
2024/03/22 06:28:03;;;;;;;49.83;32.93;;;;;;;;;;4994591;28;20414;-76
2024/03/22 06:30:29;;;;;;;47.13;32.03;;;;;;;;;;4994995;28;20424;-75
2024/03/22 06:32:54;;;;;;;44.20;30.50;;;;;;;;;;4994873;28;20408;-76
2024/03/22 06:35:21;;;;;;;46.73;32.77;;;;;;;;;;4994685;28;20486;-76
2024/03/22 06:37:48;;;;;;;50.90;30.67;;;;;;;;;;4993508;28;20950;-76
2024/03/22 06:40:14;;;;;;;50.73;34.27;;;;;;;;;;4994677;28;20415;-76
2024/03/22 06:42:40;;;;;;;54.57;33.20;;;;;;;;;;4994412;28;20896;-76
2024/03/22 06:45:06;;;;;;;49.67;31.10;;;;;;;;;;4994744;28;20764;-76
2024/03/22 06:47:32;;;;;;;50.93;35.13;;;;;;;;;;4994561;28;20425;-77
2024/03/22 06:49:58;;;;;;;45.93;30.50;;;;;;;;;;4994444;28;20427;-76
2024/03/22 06:52:24;;;;;;;45.93;33.20;;;;;;;;;;4994456;28;20507;-76
2024/03/22 06:54:50;;;;;;;47.27;32.07;;;;;;;;;;4994445;28;20536;-76
2024/03/22 06:57:16;;;;;;;47.17;33.80;;;;;;;;;;4994184;28;20427;-77
2024/03/22 06:59:42;;;;;;;52.10;34.10;;;;;;;;;;4993142;28;20185;-77
2024/03/22 07:02:09;;;;;;;47.40;31.60;;;;;;;;;;4994372;28;20516;-77
2024/03/22 07:04:35;;;;;;;47.60;31.47;;;;;;;;;;4994061;28;20472;-76
2024/03/22 07:07:01;;;;;;;52.23;34.77;;;;;;;;;;4994257;28;20424;-79
2024/03/22 07:09:29;;;;;;;47.40;32.27;;;;;;;;;;4994249;28;20409;-76
2024/03/22 07:11:55;;;;;;;49.73;34.70;;;;;;;;;;4993843;28;20425;-76
2024/03/22 07:14:24;;;;;;;50.17;32.50;;;;;;;;;;4994231;28;20468;-77
2024/03/22 07:16:50;;;;;;;48.93;34.27;;;;;;;;;;4993904;28;20480;-76
2024/03/22 07:19:16;;;;;;;46.17;32.43;;;;;;;;;;4992877;28;20913;-79
2024/03/22 07:21:42;;;;;;;49.63;34.87;;;;;;;;;;4993669;28;20209;-77
2024/03/22 07:24:07;;;;;;;49.57;33.13;;;;;;;;;;4993977;28;20509;-76
2024/03/22 07:26:33;;;;;;;46.83;31.53;;;;;;;;;;4993654;28;20178;-77
2024/03/22 07:29:00;;;;;;;46.00;31.67;;;;;;;;;;4993913;28;20425;-77
2024/03/22 07:31:26;;;;;;;53.40;32.13;;;;;;;;;;4993759;28;20177;-77
2024/03/22 07:33:53;;;;;;;49.70;33.40;;;;;;;;;;4993838;28;20777;-77
2024/03/22 07:36:19;;;;;;;53.30;37.27;;;;;;;;;;4993634;28;20480;-76
2024/03/22 07:38:45;;;;;;;50.63;31.70;;;;;;;;;;4993826;28;20480;-76
2024/03/22 07:41:11;;;;;;;56.00;37.47;;;;;;;;;;4993449;28;20488;-76
2024/03/22 07:43:37;;;;;;;47.53;34.17;;;;;;;;;;4993763;28;20440;-76
2024/03/22 07:46:03;;;;;;;50.67;33.17;;;;;;;;;;4993664;28;20231;-77
2024/03/22 07:48:29;;;;;;;47.73;30.93;;;;;;;;;;4993546;28;20188;-77
2024/03/22 07:50:58;;;;;;;49.73;34.23;;;;;;;;;;4993657;28;20425;-77
2024/03/22 07:53:24;;;;;;;51.63;34.93;;;;;;;;;;4975036;28;20425;-77
2024/03/22 07:55:50;;;;;;;53.37;35.43;;;;;;;;;;4973813;28;20472;-78
2024/03/22 07:58:16;;;;;;;52.43;35.57;;;;;;;;;;4974086;28;20418;-78
2024/03/22 08:00:42;;;;;;;52.13;33.70;;;;;;;;;;4974147;28;20174;-77
2024/03/22 08:03:08;;;;;;;54.77;35.63;;;;;;;;;;4974213;28;20441;-78
2024/03/22 08:05:34;;;;;;;54.93;33.23;;;;;;;;;;4973923;28;20477;-78
2024/03/22 08:08:00;;;;;;;57.03;35.53;;;;;;;;;;4974095;28;20776;-77
2024/03/22 08:10:26;;;;;;;50.20;32.63;;;;;;;;;;4973671;28;20942;-76
2024/03/22 08:12:52;;;;;;;49.37;33.20;;;;;;;;;;4973606;28;20425;-77
2024/03/22 08:15:18;;;;;;;60.40;38.20;;;;;;;;;;4973954;28;20210;-77
2024/03/22 08:17:44;;;;;;;49.73;33.80;;;;;;;;;;4972673;28;20425;-77
2024/03/22 08:20:10;;;;;;;55.87;35.50;;;;;;;;;;4974093;28;20430;-77
2024/03/22 08:22:36;;;;;;;52.07;32.47;;;;;;;;;;4973988;28;20466;-77
2024/03/22 08:25:03;;;;;;;48.70;33.20;;;;;;;;;;4973901;28;20426;-77
2024/03/22 08:27:29;;;;;;;52.37;34.73;;;;;;;;;;4973495;28;20696;-77
2024/03/22 08:29:55;;;;;;;49.27;34.70;;;;;;;;;;4973877;28;20423;-78
2024/03/22 08:32:21;;;;;;;53.53;35.30;;;;;;;;;;4973967;28;20419;-80
2024/03/22 08:34:47;;;;;;;53.17;33.57;;;;;;;;;;4976993;28;20822;-80
2024/03/22 08:37:13;;;;;;;48.83;33.73;;;;;;;;;;4977537;28;20428;-77
2024/03/22 08:39:39;;;;;;;52.43;33.63;;;;;;;;;;4977539;28;20179;-77
2024/03/22 08:42:05;;;;;;;47.63;33.37;;;;;;;;;;4977071;28;20670;-79
2024/03/22 08:44:31;;;;;;;55.30;35.13;;;;;;;;;;4977442;28;20419;-79
2024/03/22 08:46:57;;;;;;;53.53;33.47;;;;;;;;;;4976156;28;20482;-78
2024/03/22 08:49:23;;;;;;;54.53;33.30;;;;;;;;;;4977298;28;20179;-77
2024/03/22 08:51:49;;;;;;;53.47;33.87;;;;;;;;;;4977355;28;20439;-79
2024/03/22 08:54:15;;;;;;;52.17;32.73;;;;;;;;;;4984945;28;20273;-77
2024/03/22 08:56:41;;;;;;;54.40;35.13;;;;;;;;;;4994936;28;20530;-77
2024/03/22 08:59:07;;;;;;;56.20;36.23;;;;;;;;;;4996558;28;20179;-77
2024/03/22 09:01:33;;;;;;;62.90;35.90;;;;;;;;;;4996361;28;20425;-77
2024/03/22 09:03:59;;;;;;;52.77;36.73;;;;;;;;;;4996349;28;20455;-78
2024/03/22 09:06:25;;;;;;;57.10;35.33;;;;;;;;;;4995327;28;20187;-78
2024/03/22 09:08:51;;;;;;;58.17;34.80;;;;;;;;;;4996483;28;20407;-79
2024/03/22 09:11:18;;;;;;;56.10;35.40;;;;;;;;;;4994772;28;20178;-78
2024/03/22 09:13:49;;;;;;;55.97;35.83;;;;;;;;;;4996309;28;20186;-78
2024/03/22 09:16:15;;;;;;;59.67;37.53;;;;;;;;;;4996215;28;20476;-77
2024/03/22 09:18:41;;;;;;;55.27;34.93;;;;;;;;;;4996334;28;20415;-77
2024/03/22 09:21:10;;;;;;;55.37;35.53;;;;;;;;;;4996301;28;20948;-78
2024/03/22 09:23:36;;;;;;;54.90;34.23;;;;;;;;;;4996136;28;20403;-79
2024/03/22 09:26:02;;;;;;;57.87;36.10;;;;;;;;;;4994467;28;20445;-78
2024/03/22 09:28:28;;;;;;;53.40;33.10;;;;;;;;;;4996088;28;20436;-78
2024/03/22 09:30:54;;;;;;;47.10;31.17;;;;;;;;;;4996060;28;20179;-77
2024/03/22 09:33:20;;;;;;;53.17;33.33;;;;;;;;;;4996045;28;20925;-78
2024/03/22 09:35:46;;;;;;;53.00;33.03;;;;;;;;;;4994623;28;20479;-79
2024/03/22 09:38:11;;;;;;;58.70;34.67;;;;;;;;;;4995869;28;20504;-78
2024/03/22 09:40:41;;;;;;;48.93;32.10;;;;;;;;;;4995626;28;20436;-79
2024/03/22 09:43:07;;;;;;;56.20;34.53;;;;;;;;;;4995849;28;20429;-78
2024/03/22 09:45:33;;;;;;;52.00;32.07;;;;;;;;;;4995479;28;20422;-80
2024/03/22 09:48:01;;;;;;;51.53;32.83;;;;;;;;;;4995799;28;20914;-78
2024/03/22 09:50:27;;;;;;;50.73;31.33;;;;;;;;;;4995658;28;20418;-78
2024/03/22 09:52:53;;;;;;;46.67;29.73;;;;;;;;;;4995635;28;20425;-77
2024/03/22 09:55:23;;;;;;;52.63;31.60;;;;;;;;;;4995580;28;20962;-80
2024/03/22 09:57:50;;;;;;;45.90;31.00;;;;;;;;;;4995243;28;20592;-77
2024/03/22 10:00:18;;;;;;;41.63;27.13;;;;;;;;;;4995517;28;20410;-77
2024/03/22 10:02:44;;;;;;;43.73;28.30;;;;;;;;;;4995408;28;20445;-79
2024/03/22 10:05:10;;;;;;;42.73;29.13;;;;;;;;;;4995362;28;21055;-77
2024/03/22 10:07:36;;;;;;;45.03;28.50;;;;;;;;;;4995367;28;20418;-78
2024/03/22 10:10:03;;;;;;;46.60;27.80;;;;;;;;;;4995355;28;20417;-78
2024/03/22 10:12:29;;;;;;;44.47;29.27;;;;;;;;;;4993857;28;20436;-77
2024/03/22 10:14:55;;;;;;;41.10;26.23;;;;;;;;;;4995157;28;20418;-79
2024/03/22 10:17:21;;;;;;;38.43;26.03;;;;;;;;;;4995208;28;20421;-78
2024/03/22 10:19:51;;;;;;;40.67;28.57;;;;;;;;;;4995135;28;20413;-77
2024/03/22 10:22:17;;;;;;;47.90;29.23;;;;;;;;;;4995172;28;20479;-78
2024/03/22 10:24:43;;;;;;;50.20;29.87;;;;;;;;;;4995045;28;20488;-78
2024/03/22 10:27:09;;;;;;;46.53;29.93;;;;;;;;;;4993345;28;20465;-78
2024/03/22 10:29:36;;;;;;;44.87;31.40;;;;;;;;;;4995027;28;20414;-77
2024/03/22 10:32:02;;;;;;;48.70;31.10;;;;;;;;;;4994920;28;20443;-80
2024/03/22 10:34:28;;;;;;;47.50;30.87;;;;;;;;;;4994876;28;20425;-77
2024/03/22 10:36:56;;;;;;;48.60;29.83;;;;;;;;;;4994761;28;20828;-77
2024/03/22 10:39:23;;;;;;;46.83;29.60;;;;;;;;;;4993795;28;20839;-77
2024/03/22 10:41:49;;;;;;;45.40;29.60;;;;;;;;;;4994405;28;20458;-78
2024/03/22 10:44:15;;;;;;;48.00;30.10;;;;;;;;;;4994738;28;20409;-77
2024/03/22 10:46:45;;;;;;;41.37;27.30;;;;;;;;;;4994699;28;20468;-77
2024/03/22 10:49:31;;;;;;;44.53;29.70;;;;;;;;;;4993353;28;20422;-80
2024/03/22 10:52:01;;;;;;;48.03;30.10;;;;;;;;;;4994614;28;20438;-79
2024/03/22 10:54:34;;;;;;;42.73;28.80;;;;;;;;;;4994352;28;20407;-78
2024/03/22 10:57:01;;;;;;;47.07;29.57;;;;;;;;;;4993070;28;20492;-79
2024/03/22 10:59:26;;;;;;;49.70;31.10;;;;;;;;;;4992083;28;20869;-78
2024/03/22 11:01:53;;;;;;;48.33;31.27;;;;;;;;;;4991129;28;20569;-79
2024/03/22 11:04:26;;;;;;;43.17;29.33;;;;;;;;;;4994097;28;20978;-80
2024/03/22 11:06:52;;;;;;;43.60;28.07;;;;;;;;;;4994227;28;20417;-79
2024/03/22 11:09:26;;;;;;;42.50;27.83;;;;;;;;;;4994255;28;20422;-81
2024/03/22 11:11:52;;;;;;;41.80;27.00;;;;;;;;;;4993846;28;20405;-80
2024/03/22 11:14:18;;;;;;;33.97;24.53;;;;;;;;;;4994227;28;20421;-81
2024/03/22 11:16:45;;;;;;;39.90;27.07;;;;;;;;;;4993986;28;20474;-81
2024/03/22 11:19:11;;;;;;;35.23;21.90;;;;;;;;;;4991910;28;20484;-81
2024/03/22 11:21:37;;;;;;;32.50;20.43;;;;;;;;;;4974819;28;20416;-82
2024/03/22 11:24:03;;;;;;;28.50;19.17;;;;;;;;;;4974768;28;20407;-80
2024/03/22 11:26:29;;;;;;;25.20;18.07;;;;;;;;;;4974032;28;20429;-81
2024/03/22 11:28:55;;;;;;;31.03;18.10;;;;;;;;;;4974111;28;20419;-81
2024/03/22 11:31:27;;;;;;;26.50;16.33;;;;;;;;;;4974502;28;20421;-82
2024/03/22 11:33:53;;;;;;;23.13;15.60;;;;;;;;;;4974493;28;20412;-83
2024/03/22 11:36:19;;;;;;;20.23;14.77;;;;;;;;;;4973924;28;20467;-79
2024/03/22 11:38:45;;;;;;;20.53;14.50;;;;;;;;;;4973205;28;20481;-78
2024/03/22 11:41:11;;;;;;;21.13;14.93;;;;;;;;;;4973760;28;20426;-80
2024/03/22 11:43:37;;;;;;;22.33;16.10;;;;;;;;;;4974326;28;20250;-79
2024/03/22 11:46:03;;;;;;;23.37;15.80;;;;;;;;;;4974337;28;20418;-81
2024/03/22 11:48:29;;;;;;;22.53;15.00;;;;;;;;;;4993618;28;20903;-81
2024/03/22 11:50:55;;;;;;;20.60;13.87;;;;;;;;;;4993662;28;20429;-79
2024/03/22 11:53:21;;;;;;;19.17;13.93;;;;;;;;;;4993697;28;20500;-79
2024/03/22 11:55:49;;;;;;;18.27;13.00;;;;;;;;;;4993225;28;20564;-78
2024/03/22 11:58:15;;;;;;;18.87;13.73;;;;;;;;;;4993557;28;20420;-81
2024/03/22 12:00:42;;;;;;;20.50;13.77;;;;;;;;;;4993637;28;20422;-78
2024/03/22 12:03:10;;;;;;;20.73;14.83;;;;;;;;;;4993796;28;20209;-82
2024/03/22 12:05:36;;;;;;;20.60;12.33;;;;;;;;;;4993939;28;20822;-81
2024/03/22 12:08:02;;;;;;;20.47;14.40;;;;;;;;;;4995894;28;20471;-80
2024/03/22 12:10:28;;;;;;;17.50;11.93;;;;;;;;;;4997258;28;20721;-80
2024/03/22 12:12:54;;;;;;;21.40;13.70;;;;;;;;;;4997359;28;20505;-80
2024/03/22 12:15:20;;;;;;;17.90;11.67;;;;;;;;;;4997440;28;20208;-81
2024/03/22 12:17:46;;;;;;;17.90;10.23;;;;;;;;;;4997439;28;20425;-79
2024/03/22 12:20:14;;;;;;;15.30;9.63;;;;;;;;;;4997378;28;20411;-79
2024/03/22 12:22:40;;;;;;;16.43;11.20;;;;;;;;;;4997426;28;20424;-79
2024/03/22 12:25:06;;;;;;;14.77;9.33;;;;;;;;;;4996744;28;20423;-80
2024/03/22 12:27:32;;;;;;;15.27;9.80;;;;;;;;;;4997207;28;20201;-83
2024/03/22 12:29:58;;;;;;;11.60;8.73;;;;;;;;;;4995897;28;20921;-82
2024/03/22 12:32:24;;;;;;;13.67;8.90;;;;;;;;;;4997159;28;20417;-80
2024/03/22 12:34:50;;;;;;;14.87;10.87;;;;;;;;;;4997104;28;20428;-81
2024/03/22 12:37:16;;;;;;;14.73;8.90;;;;;;;;;;4997055;28;20183;-80
2024/03/22 12:39:42;;;;;;;13.60;8.60;;;;;;;;;;4997007;28;20418;-82
2024/03/22 12:42:08;;;;;;;13.43;10.03;;;;;;;;;;4996678;28;20419;-83
2024/03/22 12:44:33;;;;;;;15.50;8.50;;;;;;;;;;4996927;28;20423;-83
2024/03/22 12:46:59;;;;;;;12.10;9.20;;;;;;;;;;4996933;28;20488;-83
2024/03/22 12:49:25;;;;;;;12.37;9.67;;;;;;;;;;4996897;28;20656;-83
2024/03/22 12:51:51;;;;;;;11.40;9.47;;;;;;;;;;4996881;28;20937;-83
2024/03/22 12:54:18;;;;;;;12.63;7.83;;;;;;;;;;4996740;28;20899;-83
2024/03/22 12:56:44;;;;;;;10.67;7.47;;;;;;;;;;4996253;28;20471;-79
2024/03/22 12:59:10;;;;;;;11.17;7.40;;;;;;;;;;4996683;28;20415;-82
2024/03/22 13:01:36;;;;;;;14.73;8.33;;;;;;;;;;4996558;28;20456;-83
2024/03/22 13:04:02;;;;;;;12.10;9.37;;;;;;;;;;4996386;28;20224;-84
2024/03/22 13:06:28;;;;;;;11.40;8.00;;;;;;;;;;4996497;28;20440;-81
2024/03/22 13:08:54;;;;;;;10.13;7.60;;;;;;;;;;4996231;28;20795;-82
2024/03/22 13:11:23;;;;;;;9.63;6.83;;;;;;;;;;4996409;28;20501;-84
2024/03/22 13:13:49;;;;;;;8.90;7.00;;;;;;;;;;4996561;28;20169;-79
2024/03/22 13:16:15;;;;;;;11.00;7.17;;;;;;;;;;4996408;28;20568;-81
2024/03/22 13:18:42;;;;;;;10.93;7.67;;;;;;;;;;4996600;28;20410;-83
2024/03/22 13:21:08;;;;;;;10.37;7.17;;;;;;;;;;4996319;28;20413;-80
2024/03/22 13:23:35;;;;;;;13.10;8.27;;;;;;;;;;4996657;28;20417;-79
2024/03/22 13:26:05;;;;;;;10.60;6.90;;;;;;;;;;4994882;28;20920;-85
2024/03/22 13:28:31;;;;;;;10.60;7.87;;;;;;;;;;4996502;28;20815;-78
2024/03/22 13:31:03;;;;;;;11.50;8.27;;;;;;;;;;4996308;28;20415;-80
2024/03/22 13:33:33;;;;;;;13.80;8.40;;;;;;;;;;4996235;28;20415;-82
2024/03/22 13:36:01;;;;;;;12.53;7.50;;;;;;;;;;4996831;28;20899;-81
2024/03/22 13:38:27;;;;;;;12.57;8.67;;;;;;;;;;4996251;28;20419;-82
2024/03/22 13:41:00;;;;;;;10.37;7.90;;;;;;;;;;4995374;28;20528;-80
2024/03/22 13:43:29;;;;;;;13.17;9.47;;;;;;;;;;4995785;28;20440;-79
2024/03/22 13:45:55;;;;;;;8.90;7.30;;;;;;;;;;4996103;28;20421;-78
2024/03/22 13:48:25;;;;;;;8.40;5.40;;;;;;;;;;4995858;28;20647;-78
2024/03/22 13:50:52;;;;;;;8.57;6.43;;;;;;;;;;4995572;28;20418;-78
2024/03/22 13:53:17;;;;;;;8.00;6.03;;;;;;;;;;4995697;28;20409;-80
2024/03/22 13:55:43;;;;;;;8.33;4.23;;;;;;;;;;4995230;28;21029;-77
2024/03/22 13:58:09;;;;;;;5.93;3.13;;;;;;;;;;4995575;28;20929;-77
2024/03/22 14:00:35;;;;;;;3.77;2.83;;;;;;;;;;4995381;28;20436;-77
2024/03/22 14:03:01;;;;;;;4.80;2.57;;;;;;;;;;4995441;28;20443;-77
2024/03/22 14:05:27;;;;;;;5.03;2.40;;;;;;;;;;4995341;28;20457;-77
2024/03/22 14:07:54;;;;;;;2.33;1.13;;;;;;;;;;4995406;28;20905;-77
2024/03/22 14:10:20;;;;;;;4.10;2.30;;;;;;;;;;4994912;28;20437;-77
2024/03/22 14:12:46;;;;;;;3.10;2.03;;;;;;;;;;4995279;28;20448;-77
2024/03/22 14:15:13;;;;;;;3.77;2.53;;;;;;;;;;4995254;28;20900;-77